Terminal Aerodrome Forecast
Issued by NWS

Home | Current Version | Previous Version | Text Only | Print | Product List | Glossary On
Versions: 1 2 3 4 5 6 7 8 9 10 11 12 13 14 15 16 17 18
000
FTUS43 KILX 280520
TAFCMI
TAF
KCMI 280520Z 2806/2906 15004KT P6SM SCT120 BKN250
     FM280900 VRB03KT 3SM BR SCT004 BKN250
      TEMPO 2810/2813 1 1/2SM BR BKN004
     FM281400 14005KT P6SM SCT020 BKN250
     FM281900 18006KT P6SM VCTS SCT035CB BKN250
     FM290100 15004KT P6SM BKN250=

USA.gov is the U.S. government's official web portal to all federal, state and local government web resources and services.